Middlesboro, Kentucky
Current Conditions -  °F | °C
As of 9:35 AM on Saturday 22 Nov 2014 (Local Time) from K1A6 Reporting Station
Clear Clear  
Wind Chill: 35°   Ceiling: Unl
Heat Index: 35°   Visibility: 10mi
Dew Point: 27°   Wind: 0mph
Humidity: 74%   Direction: NA
Pressure: 30.44"   Gusts: NA
Location:  36.61°N, 83.72°W
Report Text: K1A6 221435Z AUTO 00000KT 10SM CLR 02/M03 A3044 RMK AO2 T00151027
Loading
Personal Weather Stations






























Interactive Weather Map New forecast layout! Learn more

10-Day Weather Forecast

Advertisements
Track Severe Weather on mobile